createdAt,value
2022-12-27T00:00:55.496Z,2.10
2022-12-27T00:03:22.468Z,1.90
2022-12-27T00:05:49.137Z,2.60
2022-12-27T00:08:16.544Z,1.70
2022-12-27T00:10:43.850Z,2.40
2022-12-27T00:13:10.692Z,2.40
2022-12-27T00:15:37.486Z,2.10
2022-12-27T00:18:04.248Z,2.30
2022-12-27T00:20:30.900Z,2.10
2022-12-27T00:23:00.507Z,2.07
2022-12-27T00:25:27.980Z,2.00
2022-12-27T00:27:54.754Z,1.90
2022-12-27T00:30:21.347Z,1.90
2022-12-27T00:32:48.064Z,2.00
2022-12-27T00:35:15.521Z,1.90
2022-12-27T00:37:42.249Z,1.83
2022-12-27T00:40:09.692Z,1.80
2022-12-27T00:42:36.873Z,1.50
2022-12-27T00:45:05.351Z,1.57
2022-12-27T00:47:32.595Z,1.50
2022-12-27T00:49:59.664Z,1.50
2022-12-27T00:52:26.571Z,1.40
2022-12-27T00:54:53.232Z,1.50
2022-12-27T00:57:20.436Z,1.47
2022-12-27T00:59:47.878Z,1.30
2022-12-27T01:02:14.571Z,1.30
2022-12-27T01:04:41.447Z,1.57
2022-12-27T01:07:08.747Z,1.40
2022-12-27T01:09:35.351Z,1.50
2022-12-27T01:12:02.100Z,1.50
2022-12-27T01:14:28.708Z,1.67
2022-12-27T01:16:55.484Z,1.73
2022-12-27T01:19:23.120Z,1.40
2022-12-27T01:21:49.778Z,1.47
2022-12-27T01:24:16.361Z,1.50
2022-12-27T01:26:43.071Z,1.70
2022-12-27T01:29:12.701Z,1.60
2022-12-27T01:31:39.485Z,1.53
2022-12-27T01:34:06.203Z,1.90
2022-12-27T01:36:33.032Z,1.70
2022-12-27T01:39:00.575Z,1.77
2022-12-27T01:41:33.260Z,1.93
2022-12-27T01:44:00.181Z,1.97
2022-12-27T01:46:28.054Z,1.77
2022-12-27T01:48:55.404Z,2.07
2022-12-27T01:51:22.409Z,1.70
2022-12-27T01:53:52.141Z,1.87
2022-12-27T01:56:31.225Z,1.90
2022-12-27T01:59:02.518Z,1.50
2022-12-27T02:01:43.165Z,1.70
2022-12-27T02:04:17.041Z,1.60
2022-12-27T02:06:43.887Z,1.73
2022-12-27T02:09:18.233Z,1.93
2022-12-27T02:11:48.591Z,1.80
2022-12-27T02:14:18.963Z,1.90
2022-12-27T02:16:47.173Z,2.23
2022-12-27T02:19:40.602Z,1.80
2022-12-27T02:22:22.402Z,2.23
2022-12-27T02:25:14.166Z,1.67
2022-12-27T02:28:27.113Z,1.60
2022-12-27T02:31:07.321Z,1.83
2022-12-27T02:33:41.992Z,2.00
2022-12-27T02:36:12.350Z,1.90
2022-12-27T02:38:47.983Z,1.80
2022-12-27T02:41:15.861Z,1.80
2022-12-27T02:43:42.461Z,1.50
2022-12-27T02:46:21.699Z,2.37
2022-12-27T02:48:56.898Z,1.97
2022-12-27T02:51:46.425Z,1.80
2022-12-27T02:54:34.444Z,1.87
2022-12-27T02:57:34.760Z,1.70
2022-12-27T03:00:13.356Z,1.80
2022-12-27T03:02:50.857Z,2.00
2022-12-27T03:05:36.136Z,1.97
2022-12-27T03:08:20.047Z,1.83
2022-12-27T03:10:55.414Z,1.80
2022-12-27T03:13:34.316Z,2.10
2022-12-27T03:16:09.572Z,1.33
2022-12-27T03:18:59.583Z,2.20
2022-12-27T03:21:31.770Z,1.70
2022-12-27T03:23:59.584Z,2.10
2022-12-27T03:26:28.320Z,2.00
2022-12-27T03:28:58.026Z,1.70
2022-12-27T03:31:33.779Z,1.80
2022-12-27T03:34:06.189Z,2.00
2022-12-27T03:36:34.453Z,2.20
2022-12-27T03:39:06.898Z,1.50
2022-12-27T03:41:42.400Z,2.00
2022-12-27T03:44:10.664Z,2.00
2022-12-27T03:46:37.611Z,1.93
2022-12-27T03:49:19.349Z,1.80
2022-12-27T03:52:04.458Z,2.00
2022-12-27T03:54:35.278Z,1.63
2022-12-27T03:57:08.002Z,2.00
2022-12-27T03:59:34.913Z,2.10
2022-12-27T04:02:02.174Z,2.00
2022-12-27T04:04:28.914Z,1.87
2022-12-27T04:06:55.527Z,1.80
2022-12-27T04:09:22.730Z,1.97
2022-12-27T04:11:49.308Z,2.00
2022-12-27T04:14:16.579Z,2.13
2022-12-27T04:16:43.256Z,2.10
2022-12-27T04:19:11.576Z,1.90
2022-12-27T04:21:38.189Z,2.43
2022-12-27T04:24:08.339Z,2.30
2022-12-27T04:26:34.938Z,1.70
2022-12-27T04:29:01.656Z,2.13
2022-12-27T04:31:28.387Z,1.97
2022-12-27T04:33:55.147Z,2.00
2022-12-27T04:36:21.729Z,2.47
2022-12-27T04:38:48.741Z,1.90
2022-12-27T04:41:15.324Z,2.00
2022-12-27T04:43:42.007Z,2.03
2022-12-27T04:46:22.439Z,2.10
2022-12-27T04:48:49.149Z,2.30
2022-12-27T04:51:15.802Z,2.20
2022-12-27T04:53:42.486Z,2.00
2022-12-27T04:56:09.132Z,2.23
2022-12-27T04:58:35.898Z,1.90
2022-12-27T05:01:06.703Z,2.30
2022-12-27T05:03:38.393Z,1.93
2022-12-27T05:06:06.701Z,2.50
2022-12-27T05:08:33.492Z,2.20
2022-12-27T05:11:00.136Z,2.30
2022-12-27T05:13:26.975Z,1.93
2022-12-27T05:15:53.624Z,1.80
2022-12-27T05:18:20.332Z,2.07
2022-12-27T05:20:47.319Z,1.93
2022-12-27T05:23:14.019Z,1.90
2022-12-27T05:25:45.568Z,2.10
2022-12-27T05:28:13.176Z,2.17
2022-12-27T05:30:42.366Z,1.70
2022-12-27T05:33:09.175Z,1.83
2022-12-27T05:35:36.214Z,2.30
2022-12-27T05:38:03.598Z,2.00
2022-12-27T05:40:30.416Z,2.00
2022-12-27T05:43:01.621Z,2.10
2022-12-27T05:45:29.223Z,1.60
2022-12-27T05:47:56.076Z,2.10
2022-12-27T05:50:22.901Z,2.20
2022-12-27T05:52:50.738Z,1.80
2022-12-27T05:55:17.721Z,1.93
2022-12-27T05:57:44.356Z,1.90
2022-12-27T06:00:14.520Z,1.80
2022-12-27T06:02:42.033Z,1.93
2022-12-27T06:05:10.480Z,1.80
2022-12-27T06:07:37.892Z,2.00
2022-12-27T06:10:07.425Z,2.10
2022-12-27T06:12:34.157Z,1.70
2022-12-27T06:15:00.863Z,1.77
2022-12-27T06:17:27.695Z,1.57
2022-12-27T06:19:57.291Z,1.63
2022-12-27T06:22:24.527Z,2.00
2022-12-27T06:24:51.244Z,1.73
2022-12-27T06:27:18.018Z,2.00
2022-12-27T06:29:44.691Z,1.83
2022-12-27T06:32:11.354Z,1.90
2022-12-27T06:34:38.189Z,1.50
2022-12-27T06:37:04.822Z,1.63
2022-12-27T06:39:31.523Z,1.70
2022-12-27T06:41:58.307Z,1.80
2022-12-27T06:44:25.795Z,1.67
2022-12-27T06:46:52.459Z,1.80
2022-12-27T06:49:19.272Z,1.77
2022-12-27T06:51:45.899Z,1.73
2022-12-27T06:54:12.582Z,2.00
2022-12-27T06:56:39.263Z,1.60
2022-12-27T06:59:06.064Z,1.80
2022-12-27T07:01:32.780Z,1.90
2022-12-27T07:04:00.459Z,1.63
2022-12-27T07:06:29.652Z,1.70
2022-12-27T07:08:57.140Z,1.83
2022-12-27T07:11:25.482Z,2.07
2022-12-27T07:13:54.705Z,1.70
2022-12-27T07:16:24.165Z,1.93
2022-12-27T07:18:52.564Z,1.80
2022-12-27T07:21:22.044Z,1.80
2022-12-27T07:23:49.331Z,1.80
2022-12-27T07:26:21.996Z,1.70
2022-12-27T07:28:49.264Z,1.70
2022-12-27T07:31:18.444Z,2.13
2022-12-27T07:33:45.796Z,1.63
2022-12-27T07:36:16.402Z,1.87
2022-12-27T07:38:43.242Z,1.60
2022-12-27T07:41:11.596Z,2.13
2022-12-27T07:43:38.662Z,1.60
2022-12-27T07:46:07.625Z,1.70
2022-12-27T07:48:34.751Z,1.70
2022-12-27T07:51:01.692Z,1.97
2022-12-27T07:53:28.520Z,2.10
2022-12-27T07:55:55.211Z,1.70
2022-12-27T07:58:22.200Z,1.67
2022-12-27T08:00:50.762Z,2.03
2022-12-27T08:03:19.252Z,1.70
2022-12-27T08:05:47.360Z,1.97
2022-12-27T08:08:16.832Z,1.50
2022-12-27T08:10:43.708Z,1.70
2022-12-27T08:13:10.393Z,1.80
2022-12-27T08:15:38.849Z,1.70
2022-12-27T08:18:05.682Z,1.70
2022-12-27T08:20:32.326Z,1.90
2022-12-27T08:22:59.242Z,1.90
2022-12-27T08:25:26.155Z,1.43
2022-12-27T08:27:52.892Z,1.70
2022-12-27T08:30:19.767Z,1.60
2022-12-27T08:32:46.496Z,1.47
2022-12-27T08:35:50.286Z,1.60
2022-12-27T08:38:03.217Z,1.57
2022-12-27T08:40:29.831Z,1.40
2022-12-27T08:42:56.562Z,1.90
2022-12-27T08:45:23.244Z,1.30
2022-12-27T08:47:50.031Z,1.77
2022-12-27T08:50:16.691Z,1.60
2022-12-27T08:52:43.496Z,1.60
2022-12-27T08:55:10.083Z,1.40
2022-12-27T08:57:37.429Z,1.40
2022-12-27T09:00:04.683Z,1.50
2022-12-27T09:02:31.435Z,2.13
2022-12-27T09:04:58.062Z,1.70
2022-12-27T09:07:24.875Z,1.93
2022-12-27T09:09:51.472Z,1.33
2022-12-27T09:12:18.133Z,1.47
2022-12-27T09:14:44.783Z,1.63
2022-12-27T09:17:11.520Z,1.43
2022-12-27T09:19:38.119Z,1.53
2022-12-27T09:22:04.892Z,1.80
2022-12-27T09:24:31.512Z,1.70
2022-12-27T09:26:58.185Z,1.50
2022-12-27T09:29:24.945Z,1.80
2022-12-27T09:31:51.590Z,1.80
2022-12-27T09:34:18.222Z,1.43
2022-12-27T09:36:44.947Z,1.50
2022-12-27T09:39:11.582Z,1.90
2022-12-27T09:45:11.426Z,1.77
2022-12-27T09:47:46.600Z,1.30
2022-12-27T09:50:20.545Z,1.50
2022-12-27T09:53:03.031Z,1.40
2022-12-27T09:55:34.427Z,1.67
2022-12-27T09:58:25.111Z,1.60
2022-12-27T10:00:52.189Z,1.50
2022-12-27T10:03:25.276Z,1.70
2022-12-27T10:05:59.483Z,1.30
2022-12-27T10:08:45.302Z,1.63
2022-12-27T10:11:17.947Z,2.00
2022-12-27T10:13:53.443Z,1.60
2022-12-27T10:16:28.839Z,1.43
2022-12-27T10:19:04.579Z,1.40
2022-12-27T10:21:37.356Z,1.70
2022-12-27T10:24:24.105Z,1.57
2022-12-27T10:26:54.649Z,1.60
2022-12-27T10:29:23.991Z,1.23
2022-12-27T10:31:51.653Z,1.63
2022-12-27T10:34:20.177Z,1.37
2022-12-27T10:36:48.389Z,1.97
2022-12-27T10:39:29.647Z,1.70
2022-12-27T10:42:30.882Z,1.90
2022-12-27T10:45:28.077Z,1.70
2022-12-27T10:48:12.222Z,1.50
2022-12-27T10:50:43.365Z,1.57
2022-12-27T10:53:30.068Z,1.70
2022-12-27T10:56:29.076Z,1.30
2022-12-27T10:59:15.943Z,1.40
2022-12-27T11:01:44.558Z,1.37
2022-12-27T11:04:20.131Z,1.60
2022-12-27T11:06:50.525Z,1.40
2022-12-27T11:09:20.051Z,1.77
2022-12-27T11:11:46.796Z,1.40
2022-12-27T11:14:19.093Z,1.43
2022-12-27T11:16:46.679Z,1.40
2022-12-27T11:19:26.561Z,1.30
2022-12-27T11:21:55.402Z,1.50
2022-12-27T11:24:22.609Z,1.43
2022-12-27T11:26:56.755Z,1.43
2022-12-27T11:29:26.387Z,1.47
2022-12-27T11:31:54.660Z,1.33
2022-12-27T11:34:30.211Z,1.33
2022-12-27T11:37:06.766Z,1.57
2022-12-27T11:39:48.503Z,1.60
2022-12-27T11:42:24.591Z,1.53
2022-12-27T11:45:09.745Z,1.63
2022-12-27T11:47:45.832Z,1.70
2022-12-27T11:50:44.687Z,1.30
2022-12-27T11:53:30.159Z,1.40
2022-12-27T11:56:21.416Z,1.23
2022-12-27T11:58:59.969Z,1.17
2022-12-27T12:01:51.602Z,1.40
2022-12-27T12:04:33.383Z,1.47
2022-12-27T12:07:22.531Z,2.47
2022-12-27T12:10:29.947Z,1.30
2022-12-27T12:13:08.836Z,1.33
2022-12-27T12:16:07.603Z,1.33
2022-12-27T12:18:46.813Z,1.30
2022-12-27T12:21:40.806Z,1.30
2022-12-27T12:24:46.368Z,1.30
2022-12-27T12:27:36.856Z,1.30
2022-12-27T12:30:31.326Z,1.30
2022-12-27T12:33:12.912Z,1.30
2022-12-27T12:35:45.854Z,1.20
2022-12-27T12:38:21.098Z,1.30
2022-12-27T12:41:09.420Z,1.50
2022-12-27T12:44:01.228Z,1.40
2022-12-27T12:46:54.157Z,4.23
2022-12-27T12:49:41.079Z,1.47
2022-12-27T12:52:15.038Z,2.07
2022-12-27T12:55:02.830Z,1.00
2022-12-27T12:57:43.184Z,1.30
2022-12-27T13:00:28.722Z,1.30
2022-12-27T13:03:30.694Z,1.00
2022-12-27T13:06:18.477Z,1.23
2022-12-27T13:09:00.878Z,1.13
2022-12-27T13:12:04.240Z,1.30
2022-12-27T13:14:49.092Z,1.30
2022-12-27T13:17:40.622Z,1.10
2022-12-27T13:20:35.063Z,1.20
2022-12-27T13:23:26.426Z,1.27
2022-12-27T13:26:20.881Z,1.13
2022-12-27T13:29:15.404Z,1.40
2022-12-27T13:31:52.929Z,1.30
2022-12-27T13:34:34.447Z,1.23
2022-12-27T13:37:31.677Z,1.40
2022-12-27T13:40:18.307Z,1.10
2022-12-27T13:43:11.605Z,1.20
2022-12-27T13:45:56.714Z,1.30
2022-12-27T13:49:00.860Z,1.10
2022-12-27T13:51:41.572Z,1.20
2022-12-27T13:54:36.119Z,1.00
2022-12-27T13:57:24.422Z,1.30
2022-12-27T14:00:16.385Z,1.37
2022-12-27T14:03:20.147Z,1.13
2022-12-27T14:06:16.157Z,1.40
2022-12-27T14:09:05.437Z,1.50
2022-12-27T14:11:50.923Z,1.33
2022-12-27T14:14:19.876Z,1.30
2022-12-27T14:17:15.787Z,1.30
2022-12-27T14:19:45.500Z,1.47
2022-12-27T14:22:27.121Z,1.50
2022-12-27T14:25:46.827Z,1.50
2022-12-27T14:28:19.353Z,1.70
2022-12-27T14:31:13.985Z,2.20
2022-12-27T14:33:40.632Z,3.57
2022-12-27T14:36:33.011Z,1.37
2022-12-27T14:39:18.483Z,1.80
2022-12-27T14:42:04.299Z,2.03
2022-12-27T14:44:50.023Z,1.67
2022-12-27T14:47:50.484Z,1.50
2022-12-27T14:50:44.739Z,2.53
2022-12-27T14:53:42.717Z,1.30
2022-12-27T14:56:23.303Z,1.60
2022-12-27T14:59:20.348Z,1.60
2022-12-27T15:02:09.043Z,1.63
2022-12-27T15:04:35.716Z,2.13
2022-12-27T15:07:23.836Z,1.73
2022-12-27T15:10:09.074Z,1.90
2022-12-27T15:12:48.394Z,2.10
2022-12-27T15:15:27.125Z,2.13
2022-12-27T15:18:02.724Z,2.30
2022-12-27T15:20:38.374Z,2.13
2022-12-27T15:23:38.777Z,1.87
2022-12-27T15:26:30.208Z,2.33
2022-12-27T15:29:03.638Z,2.17
2022-12-27T15:31:40.889Z,2.30
2022-12-27T15:34:29.359Z,2.30
2022-12-27T15:36:56.178Z,1.90
2022-12-27T15:39:34.800Z,2.57
2022-12-27T15:42:44.817Z,2.20
2022-12-27T15:45:36.911Z,1.90
2022-12-27T15:48:41.611Z,2.23
2022-12-27T15:51:36.689Z,2.50
2022-12-27T15:54:09.836Z,2.40
2022-12-27T15:56:48.894Z,2.43
2022-12-27T15:59:34.260Z,2.30
2022-12-27T16:02:24.494Z,3.50
2022-12-27T16:04:57.224Z,5.83
2022-12-27T16:07:43.777Z,2.87
2022-12-27T16:10:32.110Z,2.97
2022-12-27T16:13:04.567Z,2.97
2022-12-27T16:15:34.060Z,2.47
2022-12-27T16:18:02.826Z,3.20
2022-12-27T16:20:31.236Z,2.90
2022-12-27T16:22:57.787Z,2.70
2022-12-27T16:25:40.191Z,3.00
2022-12-27T16:28:27.638Z,2.33
2022-12-27T16:31:06.930Z,2.40
2022-12-27T16:33:37.976Z,2.57
2022-12-27T16:36:36.044Z,2.93
2022-12-27T16:39:11.581Z,2.90
2022-12-27T16:41:53.285Z,2.57
2022-12-27T16:44:26.146Z,2.67
2022-12-27T16:47:05.549Z,2.57
2022-12-27T16:49:32.156Z,2.63
2022-12-27T16:52:13.753Z,2.73
2022-12-27T16:55:21.843Z,2.70
2022-12-27T16:57:50.266Z,2.90
2022-12-27T17:00:35.837Z,2.63
2022-12-27T17:03:21.412Z,2.63
2022-12-27T17:06:30.068Z,2.50
2022-12-27T17:08:37.053Z,3.13
2022-12-27T17:11:27.595Z,2.90
2022-12-27T17:14:03.349Z,2.83
2022-12-27T17:16:41.653Z,2.73
2022-12-27T17:19:19.329Z,3.23
2022-12-27T17:21:47.873Z,2.87
2022-12-27T17:24:19.871Z,3.00
2022-12-27T17:26:52.745Z,3.00
2022-12-27T17:29:50.296Z,3.00
2022-12-27T17:32:36.309Z,3.30
2022-12-27T17:35:15.230Z,3.40
2022-12-27T17:38:09.446Z,3.17
2022-12-27T17:40:46.454Z,3.30
2022-12-27T17:43:27.732Z,4.13
2022-12-27T17:46:09.732Z,3.90
2022-12-27T17:48:37.267Z,3.30
2022-12-27T17:51:20.573Z,3.43
2022-12-27T17:53:49.930Z,2.80
2022-12-27T17:56:22.066Z,3.57
2022-12-27T17:58:48.875Z,3.07
2022-12-27T18:01:15.870Z,3.13
2022-12-27T18:03:47.081Z,3.00
2022-12-27T18:06:19.333Z,3.00
2022-12-27T18:08:48.389Z,3.13
2022-12-27T18:11:15.886Z,3.20
2022-12-27T18:13:54.789Z,3.17
2022-12-27T18:16:30.369Z,3.03
2022-12-27T18:18:57.468Z,4.00
2022-12-27T18:21:29.142Z,3.53
2022-12-27T18:23:56.586Z,3.80
2022-12-27T18:26:36.584Z,4.30
2022-12-27T18:29:03.900Z,3.43
2022-12-27T18:31:59.956Z,3.40
2022-12-27T18:34:58.446Z,3.10
2022-12-27T18:37:26.931Z,3.20
2022-12-27T18:39:59.616Z,3.30
2022-12-27T18:42:42.440Z,3.50
2022-12-27T18:45:22.606Z,3.13
2022-12-27T18:47:52.588Z,3.40
2022-12-27T18:50:24.701Z,5.00
2022-12-27T18:53:22.271Z,3.90
2022-12-27T18:56:01.234Z,3.10
2022-12-27T18:58:28.377Z,3.23
2022-12-27T19:00:55.011Z,3.60
2022-12-27T19:03:21.752Z,5.20
2022-12-27T19:06:03.697Z,3.30
2022-12-27T19:08:37.097Z,3.50
2022-12-27T19:11:05.592Z,3.13
2022-12-27T19:13:49.981Z,3.73
2022-12-27T19:16:28.322Z,3.43
2022-12-27T19:18:58.175Z,5.13
2022-12-27T19:21:39.814Z,3.90
2022-12-27T19:24:24.853Z,2.73
2022-12-27T19:26:52.203Z,7.40
2022-12-27T19:29:22.398Z,2.90
2022-12-27T19:32:02.435Z,4.07
2022-12-27T19:34:33.274Z,2.80
2022-12-27T19:37:00.013Z,4.27
2022-12-27T19:39:26.606Z,7.10
2022-12-27T19:42:00.969Z,3.60
2022-12-27T19:44:28.791Z,4.07
2022-12-27T19:46:55.557Z,3.20
2022-12-27T19:52:17.372Z,8.73
2022-12-27T19:54:44.151Z,3.83
2022-12-27T19:57:11.759Z,6.63
2022-12-27T19:59:38.867Z,3.93
2022-12-27T20:02:06.186Z,3.57
2022-12-27T20:04:33.058Z,5.47
2022-12-27T20:07:00.765Z,4.23
2022-12-27T20:09:27.932Z,4.47
2022-12-27T20:11:54.746Z,10.53
2022-12-27T20:14:21.657Z,5.50
2022-12-27T20:16:48.510Z,3.10
2022-12-27T20:19:16.289Z,2.90
2022-12-27T20:21:42.976Z,3.30
2022-12-27T20:24:10.930Z,7.63
2022-12-27T20:26:38.057Z,4.60
2022-12-27T20:29:05.431Z,6.13
2022-12-27T20:31:32.314Z,4.90
2022-12-27T20:33:59.714Z,3.10
2022-12-27T20:36:26.353Z,3.17
2022-12-27T20:38:53.121Z,4.60
2022-12-27T20:41:21.322Z,2.80
2022-12-27T20:43:48.075Z,3.40
2022-12-27T20:46:18.326Z,3.03
2022-12-27T20:48:46.328Z,3.60
2022-12-27T20:51:18.878Z,6.73
2022-12-27T20:53:47.273Z,4.60
2022-12-27T20:56:14.596Z,2.73
2022-12-27T20:58:42.539Z,4.33
2022-12-27T21:01:15.929Z,3.57
2022-12-27T21:03:44.928Z,3.03
2022-12-27T21:06:15.087Z,6.20
2022-12-27T21:08:47.735Z,2.80
2022-12-27T21:11:22.662Z,4.53
2022-12-27T21:13:50.126Z,2.90
2022-12-27T21:16:19.527Z,5.53
2022-12-27T21:18:47.896Z,3.30
2022-12-27T21:21:20.523Z,4.60
2022-12-27T21:23:47.737Z,3.77
2022-12-27T21:26:17.268Z,2.93
2022-12-27T21:28:44.737Z,2.70
2022-12-27T21:31:12.756Z,2.93
2022-12-27T21:33:40.106Z,3.07
2022-12-27T21:36:11.007Z,3.00
2022-12-27T21:38:37.881Z,3.23
2022-12-27T21:41:15.433Z,3.27
2022-12-27T21:43:43.243Z,3.20
2022-12-27T21:46:18.590Z,3.17
2022-12-27T21:48:46.174Z,2.83
2022-12-27T21:51:18.119Z,3.03
2022-12-27T21:53:45.071Z,3.57
2022-12-27T21:56:13.227Z,3.40
2022-12-27T21:58:40.972Z,3.33
2022-12-27T22:01:16.868Z,2.90
2022-12-27T22:03:47.183Z,3.10
2022-12-27T22:06:15.443Z,3.20
2022-12-27T22:08:43.949Z,2.97
2022-12-27T22:11:11.441Z,3.30
2022-12-27T22:13:38.162Z,3.20
2022-12-27T22:16:07.813Z,3.17
2022-12-27T22:18:36.624Z,2.90
2022-12-27T22:21:06.376Z,3.07
2022-12-27T22:23:35.462Z,2.77
2022-12-27T22:26:02.488Z,2.80
2022-12-27T22:28:29.129Z,3.17
2022-12-27T22:30:56.146Z,3.10
2022-12-27T22:33:23.174Z,3.07
2022-12-27T22:35:49.831Z,2.93
2022-12-27T22:38:16.651Z,2.83
2022-12-27T22:40:46.790Z,2.80
2022-12-27T22:43:14.001Z,2.50
2022-12-27T22:45:41.898Z,2.60
2022-12-27T22:48:08.775Z,2.73
2022-12-27T22:50:37.862Z,2.70
2022-12-27T22:53:05.253Z,2.97
2022-12-27T22:55:31.922Z,2.40
2022-12-27T22:57:58.595Z,2.40
2022-12-27T23:00:25.775Z,2.30
2022-12-27T23:02:52.627Z,2.40
2022-12-27T23:05:19.303Z,2.23
2022-12-27T23:08:04.817Z,2.67
2022-12-27T23:10:33.116Z,2.20
2022-12-27T23:13:00.201Z,2.50
2022-12-27T23:15:26.893Z,2.20
2022-12-27T23:17:53.462Z,2.97
2022-12-27T23:20:20.185Z,2.10
2022-12-27T23:22:46.768Z,2.27
2022-12-27T23:25:13.624Z,2.17
2022-12-27T23:27:40.306Z,1.97
2022-12-27T23:30:07.455Z,2.33
2022-12-27T23:32:34.075Z,2.20
2022-12-27T23:35:00.805Z,1.93
2022-12-27T23:37:27.485Z,1.90
2022-12-27T23:39:54.141Z,2.03
2022-12-27T23:42:20.835Z,1.80
2022-12-27T23:44:47.619Z,1.67
2022-12-27T23:47:14.214Z,1.97
2022-12-27T23:49:41.042Z,2.10
2022-12-27T23:52:07.639Z,2.17
2022-12-27T23:54:34.310Z,2.13
2022-12-27T23:57:19.604Z,2.00
2022-12-27T23:59:47.731Z,2.30
